Time;durP1;ratioP1;P1;durP2;ratioP2;P2;SDS_P1;SDS_P2;PMS_P1;PMS_P2;Temp;Humidity;BMP_temperature;BMP_pressure;BME280_temperature;BME280_humidity;BME280_pressure;Samples;Min_cycle;Max_cycle;Signal;HPM_P1;HPM_P2
2023/04/11 00:00:18;;;;;;;3.35;2.15;;;;;;;15.09;30.96;96809.19;5037137;28;20028;-30
2023/04/11 00:02:43;;;;;;;3.47;2.53;;;;;;;15.08;30.97;96807.66;5041209;28;20081;-30
2023/04/11 00:05:09;;;;;;;3.42;2.30;;;;;;;15.04;30.88;96801.59;5034947;28;20071;-31
2023/04/11 00:07:36;;;;;;;4.05;2.42;;;;;;;15.06;30.90;96790.97;5035532;28;20088;-30
2023/04/11 00:10:02;;;;;;;3.90;2.50;;;;;;;15.11;30.81;96789.63;5042027;28;20049;-30
2023/04/11 00:12:27;;;;;;;2.80;2.20;;;;;;;15.09;30.33;96789.28;5035090;28;20529;-30
2023/04/11 00:14:54;;;;;;;2.97;2.25;;;;;;;15.11;30.23;96795.09;5034733;28;20109;-30
2023/04/11 00:17:20;;;;;;;4.30;2.10;;;;;;;14.93;30.30;96801.22;5041645;28;20096;-30
2023/04/11 00:19:47;;;;;;;2.90;2.15;;;;;;;14.94;30.61;96804.72;5035158;28;20108;-30
2023/04/11 00:22:14;;;;;;;2.95;2.30;;;;;;;15.20;29.84;96799.84;5034477;28;20025;-31
2023/04/11 00:24:40;;;;;;;2.95;2.00;;;;;;;14.97;30.43;96799.09;5034722;28;20437;-30
2023/04/11 00:27:06;;;;;;;2.80;2.10;;;;;;;14.89;30.29;96797.84;5034501;28;20104;-29
2023/04/11 00:29:33;;;;;;;3.20;2.30;;;;;;;15.12;29.50;96796.59;5034491;28;20037;-31
2023/04/11 00:31:59;;;;;;;2.50;1.90;;;;;;;15.02;29.80;96787.59;5042886;28;20382;-31
2023/04/11 00:34:26;;;;;;;3.33;2.20;;;;;;;15.09;29.81;96794.75;5046504;28;20018;-30
2023/04/11 00:36:51;;;;;;;3.10;2.15;;;;;;;14.77;29.60;96792.44;5034401;28;20025;-32
2023/04/11 00:39:17;;;;;;;3.00;2.08;;;;;;;14.94;29.29;96797.28;5034229;28;20362;-30
2023/04/11 00:41:43;;;;;;;2.28;2.00;;;;;;;14.95;28.88;96804.28;5034287;28;20029;-30
2023/04/11 00:44:10;;;;;;;2.90;2.00;;;;;;;14.89;29.37;96802.53;5041529;28;20784;-30
2023/04/11 00:46:35;;;;;;;3.08;2.00;;;;;;;14.86;28.96;96808.88;5032712;28;20032;-31
2023/04/11 00:49:01;;;;;;;2.70;1.80;;;;;;;14.84;29.49;96816.75;5034426;28;20025;-30
2023/04/11 00:51:27;;;;;;;2.50;2.10;;;;;;;14.96;29.03;96815.97;5041482;28;20104;-33
2023/04/11 00:53:53;;;;;;;2.88;2.03;;;;;;;14.85;29.12;96818.28;5033987;28;20013;-31
2023/04/11 00:56:18;;;;;;;3.30;2.50;;;;;;;14.97;29.10;96831.09;5034109;28;20095;-30
2023/04/11 00:58:44;;;;;;;3.17;2.03;;;;;;;15.02;29.08;96830.53;5034075;28;20040;-30
2023/04/11 01:01:10;;;;;;;2.72;1.85;;;;;;;14.96;28.83;96821.41;5040830;28;20469;-31
2023/04/11 01:03:38;;;;;;;3.13;2.22;;;;;;;14.95;28.97;96811.69;5033868;28;20071;-32
2023/04/11 01:09:27;;;;;;;2.85;2.00;;;;;;;15.04;28.51;96806.28;5032847;28;20090;-31
2023/04/11 01:11:55;;;;;;;2.97;2.00;;;;;;;15.04;28.77;96809.00;5033712;28;20032;-30
2023/04/11 01:14:21;;;;;;;3.97;2.47;;;;;;;14.95;28.79;96807.00;5040120;28;20457;-30
2023/04/11 01:16:47;;;;;;;3.00;2.03;;;;;;;14.99;28.69;96799.41;5041521;28;20503;-31
2023/04/11 01:19:20;;;;;;;2.72;1.83;;;;;;;15.10;28.73;96793.56;5038994;28;20021;-31
2023/04/11 01:21:48;;;;;;;3.47;1.98;;;;;;;14.81;29.16;96788.41;5034390;28;20195;-30
2023/04/11 01:24:14;;;;;;;2.30;1.83;;;;;;;14.68;28.87;96777.53;5033736;28;20021;-32
2023/04/11 01:26:40;;;;;;;2.55;2.03;;;;;;;14.93;28.67;96781.34;5032483;28;20021;-30
2023/04/11 01:29:05;;;;;;;3.20;1.98;;;;;;;14.91;28.53;96770.09;5033829;28;20104;-30
2023/04/11 01:31:33;;;;;;;3.50;2.13;;;;;;;14.84;28.85;96764.88;5033887;28;20018;-30
2023/04/11 01:34:03;;;;;;;2.25;1.60;;;;;;;14.89;28.29;96750.66;5033929;28;20032;-30
2023/04/11 01:36:30;;;;;;;2.53;1.95;;;;;;;14.81;28.77;96736.50;5040841;28;20021;-30
2023/04/11 01:38:56;;;;;;;2.20;1.67;;;;;;;14.89;28.03;96745.19;5033708;28;20048;-31
2023/04/11 01:41:23;;;;;;;2.25;1.77;;;;;;;15.01;28.04;96753.31;5033571;28;20430;-30
2023/04/11 01:43:49;;;;;;;2.17;1.65;;;;;;;14.89;28.29;96742.47;5033161;28;20469;-30
2023/04/11 01:46:15;;;;;;;2.53;1.75;;;;;;;14.72;28.33;96741.91;5041209;28;20083;-30
2023/04/11 01:48:41;;;;;;;2.28;1.65;;;;;;;14.90;28.35;96744.00;5038822;28;20490;-30
2023/04/11 01:51:07;;;;;;;3.72;2.13;;;;;;;15.02;28.04;96754.84;5042480;28;20029;-31
2023/04/11 01:53:32;;;;;;;2.38;1.85;;;;;;;14.78;28.75;96761.22;5033572;28;20024;-29
2023/04/11 01:55:57;;;;;;;1.95;1.65;;;;;;;14.93;28.28;96767.69;5033441;28;20018;-31
2023/04/11 01:58:23;;;;;;;2.60;2.00;;;;;;;14.86;28.43;96755.03;5033598;28;20075;-30
2023/04/11 02:00:48;;;;;;;2.60;1.80;;;;;;;14.95;28.52;96759.81;5033559;28;20049;-30
2023/04/11 02:03:16;;;;;;;2.72;1.70;;;;;;;14.73;28.72;96760.56;5040477;28;20049;-30
2023/04/11 02:05:42;;;;;;;6.82;2.55;;;;;;;14.97;28.75;96758.13;5026229;28;20095;-30
2023/04/11 02:08:07;;;;;;;2.92;1.80;;;;;;;14.80;28.70;96762.28;5033399;28;20473;-30
2023/04/11 02:10:33;;;;;;;2.63;1.88;;;;;;;14.96;28.77;96761.34;5040607;28;20358;-30
2023/04/11 02:12:58;;;;;;;2.58;1.58;;;;;;;14.77;28.44;96765.91;5033197;28;20040;-30
2023/04/11 02:15:24;;;;;;;3.00;1.90;;;;;;;14.86;28.87;96767.94;5039672;28;20025;-30
2023/04/11 02:17:52;;;;;;;2.78;1.80;;;;;;;14.92;28.58;96772.38;5034906;28;20078;-30
2023/04/11 02:20:22;;;;;;;2.28;1.60;;;;;;;14.73;28.70;96759.81;5037496;28;20035;-30
2023/04/11 02:22:47;;;;;;;2.30;1.63;;;;;;;14.77;28.63;96754.22;5043945;28;20037;-30
2023/04/11 02:25:13;;;;;;;2.38;1.77;;;;;;;14.77;28.54;96755.00;5036577;28;20025;-30
2023/04/11 02:27:39;;;;;;;2.40;1.67;;;;;;;14.70;28.49;96753.28;5037141;28;20095;-30
2023/04/11 02:30:05;;;;;;;2.50;1.80;;;;;;;14.84;28.86;96748.50;5036614;28;20480;-31
2023/04/11 02:32:34;;;;;;;2.22;1.52;;;;;;;14.79;28.36;96754.53;5043285;28;20028;-31
2023/04/11 02:35:00;;;;;;;4.05;1.50;;;;;;;14.77;28.59;96752.25;5044247;28;20104;-30
2023/04/11 02:37:26;;;;;;;2.00;1.60;;;;;;;14.78;28.56;96759.25;5041691;28;20357;-30
2023/04/11 02:39:53;;;;;;;2.47;1.70;;;;;;;14.72;28.44;96750.84;5037451;28;20025;-30
2023/04/11 02:42:19;;;;;;;2.08;1.40;;;;;;;14.85;28.43;96752.75;5036594;28;20053;-30
2023/04/11 02:44:44;;;;;;;2.15;1.67;;;;;;;14.73;28.47;96752.38;5036397;28;20060;-30
2023/04/11 02:47:09;;;;;;;1.63;1.25;;;;;;;14.69;28.47;96754.50;5037882;28;20026;-30
2023/04/11 02:49:35;;;;;;;2.17;1.50;;;;;;;14.64;28.24;96755.06;5042013;28;20029;-30
2023/04/11 02:52:00;;;;;;;2.63;1.60;;;;;;;14.72;28.13;96753.59;5035908;28;20342;-30
2023/04/11 02:54:26;;;;;;;3.58;1.65;;;;;;;14.84;28.24;96753.94;5036443;28;20025;-30
2023/04/11 02:56:51;;;;;;;1.95;1.42;;;;;;;14.53;28.34;96743.75;5037459;28;20017;-30
2023/04/11 02:59:17;;;;;;;2.53;1.35;;;;;;;14.69;28.08;96738.13;5036698;28;20036;-30
2023/04/11 03:01:43;;;;;;;2.10;1.38;;;;;;;14.67;28.15;96739.75;5035838;28;20417;-30
2023/04/11 03:04:09;;;;;;;3.17;1.70;;;;;;;14.70;28.28;96738.88;5041482;28;20021;-30
2023/04/11 03:06:35;;;;;;;1.85;1.40;;;;;;;14.57;27.96;96738.19;5038410;28;20040;-30
2023/04/11 03:09:00;;;;;;;2.30;1.50;;;;;;;14.55;28.09;96733.16;5040844;28;20511;-30
2023/04/11 03:11:26;;;;;;;1.80;1.50;;;;;;;14.67;28.20;96735.06;5039410;28;20032;-29
2023/04/11 03:13:51;;;;;;;2.67;2.28;;;;;;;14.62;28.26;96726.69;5039262;28;20037;-31
2023/04/11 03:16:17;;;;;;;2.67;2.35;;;;;;;14.55;28.54;96730.44;5039511;28;20036;-30
2023/04/11 03:18:42;;;;;;;3.83;1.70;;;;;;;14.70;28.33;96725.22;5036166;28;20477;-30
2023/04/11 03:21:09;;;;;;;3.00;1.65;;;;;;;14.63;28.54;96726.22;5043088;28;20017;-30
2023/04/11 03:23:36;;;;;;;3.03;1.75;;;;;;;14.66;28.57;96738.25;5043075;28;20492;-30
2023/04/11 03:26:02;;;;;;;2.38;1.52;;;;;;;14.91;28.35;96732.63;5028570;28;20032;-30
2023/04/11 03:28:28;;;;;;;2.30;1.35;;;;;;;14.90;28.65;96731.09;5035725;28;20021;-31
2023/04/11 03:30:54;;;;;;;2.88;1.63;;;;;;;14.84;28.49;96726.66;5034292;28;20033;-30
2023/04/11 03:33:19;;;;;;;2.75;1.50;;;;;;;14.66;28.85;96728.09;5042140;28;20025;-30
2023/04/11 03:35:44;;;;;;;5.10;1.52;;;;;;;14.84;28.70;96718.44;5035665;28;20117;-30
2023/04/11 03:38:10;;;;;;;3.45;1.90;;;;;;;14.59;29.35;96727.56;5042777;28;20527;-30
2023/04/11 03:40:35;;;;;;;2.45;1.70;;;;;;;14.79;28.91;96722.53;5042549;28;20025;-29
2023/04/11 03:43:01;;;;;;;5.70;1.80;;;;;;;14.61;29.26;96715.00;5035554;28;20033;-30
2023/04/11 03:45:27;;;;;;;3.22;1.50;;;;;;;14.56;29.58;96714.81;5035436;28;20067;-30
2023/04/11 03:47:52;;;;;;;6.57;4.65;;;;;;;14.85;29.09;96709.81;5035080;28;20104;-30
2023/04/11 03:50:18;;;;;;;21.60;9.80;;;;;;;14.68;29.31;96703.06;5037747;28;20124;-30
2023/04/11 03:52:43;;;;;;;24.10;14.38;;;;;;;14.55;29.47;96711.34;5046111;28;20017;-30
2023/04/11 03:55:09;;;;;;;20.75;12.55;;;;;;;14.80;29.28;96717.84;5037231;28;20495;-29
2023/04/11 03:57:35;;;;;;;9.02;6.07;;;;;;;14.79;29.18;96710.88;5035233;28;20025;-30
2023/04/11 04:00:00;;;;;;;5.28;3.55;;;;;;;14.82;29.22;96712.69;5034984;28;20021;-30
2023/04/11 04:02:29;;;;;;;4.57;2.92;;;;;;;14.76;29.17;96722.66;5035226;28;20041;-30
2023/04/11 04:05:11;;;;;;;3.28;2.22;;;;;;;14.92;28.82;96727.94;5034931;28;20101;-30
2023/04/11 04:07:36;;;;;;;2.97;1.75;;;;;;;14.70;29.43;96723.25;5034605;28;20084;-31
2023/04/11 04:10:02;;;;;;;3.00;1.80;;;;;;;14.58;29.51;96726.81;5041661;28;20025;-30
2023/04/11 04:12:27;;;;;;;4.40;2.45;;;;;;;14.79;28.88;96722.53;5041863;28;20025;-30
2023/04/11 04:14:53;;;;;;;3.30;1.92;;;;;;;14.54;29.58;96720.72;5041590;28;20013;-31
2023/04/11 04:17:18;;;;;;;4.03;2.00;;;;;;;14.51;29.92;96721.59;5034567;28;20050;-31
2023/04/11 04:19:44;;;;;;;3.53;1.83;;;;;;;14.80;29.17;96723.31;5034649;28;20029;-30
2023/04/11 04:22:10;;;;;;;2.22;1.60;;;;;;;14.56;29.32;96729.22;5039636;28;20369;-31
2023/04/11 04:24:41;;;;;;;2.67;1.65;;;;;;;14.73;29.25;96741.47;5036912;28;20033;-30
2023/04/11 04:27:10;;;;;;;4.55;1.80;;;;;;;14.65;29.36;96742.16;5026828;28;20018;-30
2023/04/11 04:29:45;;;;;;;3.72;1.65;;;;;;;14.59;29.30;96744.69;5041440;28;20161;-30
2023/04/11 04:32:19;;;;;;;3.35;1.90;;;;;;;14.63;29.55;96737.16;5031430;28;20027;-30
2023/04/11 04:34:48;;;;;;;5.75;2.25;;;;;;;14.58;29.31;96740.47;5037277;28;20017;-30
2023/04/11 04:37:23;;;;;;;2.72;1.98;;;;;;;14.64;28.71;96735.94;5027336;28;20107;-31
2023/04/11 04:39:49;;;;;;;4.03;2.13;;;;;;;14.81;28.64;96733.03;5041172;28;20029;-30
2023/04/11 04:42:16;;;;;;;2.60;1.80;;;;;;;14.68;29.17;96735.81;5041360;28;20021;-30
2023/04/11 04:44:41;;;;;;;3.13;1.80;;;;;;;14.64;29.13;96716.84;5032303;28;20022;-32
2023/04/11 04:47:06;;;;;;;2.20;1.50;;;;;;;14.85;28.69;96707.09;5034554;28;20031;-30
2023/04/11 04:49:32;;;;;;;3.03;1.90;;;;;;;14.68;28.60;96692.91;5034078;28;20112;-29
2023/04/11 04:51:57;;;;;;;4.55;2.10;;;;;;;14.71;28.51;96697.47;5039904;28;20104;-30
2023/04/11 04:54:23;;;;;;;3.47;1.70;;;;;;;14.67;28.76;96701.53;5036900;28;20101;-29
2023/04/11 04:56:48;;;;;;;2.50;1.80;;;;;;;14.80;28.75;96706.91;5045766;28;20031;-30
2023/04/11 04:59:15;;;;;;;3.47;1.80;;;;;;;14.72;28.51;96707.16;5041217;28;20018;-30
2023/04/11 05:01:41;;;;;;;2.45;1.67;;;;;;;14.76;28.00;96709.00;5033642;28;20017;-31
2023/04/11 05:04:06;;;;;;;2.45;1.88;;;;;;;14.76;28.44;96712.50;5033899;28;20481;-30
2023/04/11 05:06:32;;;;;;;2.95;2.00;;;;;;;14.81;28.60;96713.91;5033751;28;20025;-30
2023/04/11 05:09:00;;;;;;;6.65;2.10;;;;;;;14.77;29.26;96710.53;5034132;28;20022;-30
2023/04/11 05:11:26;;;;;;;5.22;3.30;;;;;;;14.74;28.78;96707.50;5041299;28;20416;-31
2023/04/11 05:13:52;;;;;;;3.50;1.95;;;;;;;14.92;28.58;96697.88;5034177;28;20079;-30
2023/04/11 05:16:18;;;;;;;5.10;1.85;;;;;;;14.81;29.11;96697.53;5033706;28;20029;-30
2023/04/11 05:18:44;;;;;;;2.30;1.65;;;;;;;14.86;29.47;96702.38;5034238;28;20037;-31
2023/04/11 05:21:09;;;;;;;3.13;1.75;;;;;;;14.86;29.84;96714.06;5028156;28;20026;-31
2023/04/11 05:23:35;;;;;;;2.75;1.80;;;;;;;14.94;29.49;96720.06;5032592;28;20032;-30
2023/04/11 05:26:01;;;;;;;5.90;1.80;;;;;;;14.85;29.37;96717.25;5026639;28;20096;-30
2023/04/11 05:28:27;;;;;;;4.30;2.00;;;;;;;14.84;29.29;96716.50;5040617;28;20426;-31
2023/04/11 05:30:52;;;;;;;9.95;2.22;;;;;;;14.89;30.00;96709.69;5041095;28;20032;-30
2023/04/11 05:33:17;;;;;;;3.70;2.50;;;;;;;14.81;29.99;96708.44;5040989;28;20104;-30
2023/04/11 05:35:43;;;;;;;5.28;1.95;;;;;;;14.67;30.11;96705.03;5033095;28;20022;-30
2023/04/11 05:38:08;;;;;;;3.78;2.08;;;;;;;14.73;30.05;96705.22;5040797;28;20033;-29
2023/04/11 05:40:35;;;;;;;2.60;1.60;;;;;;;14.70;30.14;96709.63;5033602;28;20030;-30
2023/04/11 05:43:01;;;;;;;3.38;1.90;;;;;;;14.57;30.46;96708.91;5032922;28;20026;-31
2023/04/11 05:45:26;;;;;;;2.38;1.70;;;;;;;14.67;29.99;96707.75;5039951;28;20496;-30
2023/04/11 05:47:52;;;;;;;2.70;1.98;;;;;;;14.91;29.46;96699.09;5040724;28;20037;-30
2023/04/11 05:50:17;;;;;;;2.80;2.10;;;;;;;14.90;29.71;96708.50;5043018;28;20028;-30
2023/04/11 05:52:43;;;;;;;2.08;1.52;;;;;;;14.60;30.17;96720.91;5037523;28;20013;-30
2023/04/11 05:55:08;;;;;;;3.38;2.30;;;;;;;14.71;30.23;96708.38;5033474;28;20024;-30
2023/04/11 05:57:34;;;;;;;2.40;1.90;;;;;;;14.97;29.83;96714.44;5052028;28;20024;-30
2023/04/11 06:00:00;;;;;;;4.50;2.42;;;;;;;14.76;30.10;96715.25;5043942;28;20028;-30
2023/04/11 06:02:27;;;;;;;2.75;2.20;;;;;;;14.63;30.55;96717.28;5037705;28;20057;-31
2023/04/11 06:04:52;;;;;;;3.50;2.22;;;;;;;14.69;30.50;96727.19;5037377;28;20021;-30
2023/04/11 06:07:18;;;;;;;2.67;2.10;;;;;;;14.97;30.66;96732.78;5037356;28;20113;-30
2023/04/11 06:09:44;;;;;;;2.63;1.85;;;;;;;14.81;30.74;96741.97;5029857;28;20053;-30
2023/04/11 06:12:09;;;;;;;3.25;1.95;;;;;;;14.69;31.10;96732.66;5037043;28;20059;-30
2023/04/11 06:14:35;;;;;;;3.13;2.03;;;;;;;14.60;31.51;96734.53;5051858;28;20021;-30
2023/04/11 06:17:00;;;;;;;3.28;2.40;;;;;;;14.41;31.67;96747.31;5044287;28;20029;-30
2023/04/11 06:19:26;;;;;;;3.13;2.00;;;;;;;14.72;31.12;96748.13;5037054;28;20386;-33
2023/04/11 06:21:51;;;;;;;4.38;2.15;;;;;;;14.57;31.55;96749.09;5037496;28;20025;-30
2023/04/11 06:24:19;;;;;;;3.95;2.30;;;;;;;14.66;31.80;96747.19;5037065;28;20025;-30
2023/04/11 06:26:45;;;;;;;3.22;1.98;;;;;;;14.74;31.59;96747.69;5036878;28;20082;-30
2023/04/11 06:29:10;;;;;;;3.90;2.35;;;;;;;14.87;31.51;96750.34;5040756;28;20013;-30
2023/04/11 06:31:36;;;;;;;7.18;4.22;;;;;;;14.74;31.40;96748.44;5040040;28;20580;-30
2023/04/11 06:34:01;;;;;;;7.93;4.50;;;;;;;14.88;31.93;96746.41;5036921;28;20013;-31
2023/04/11 06:36:28;;;;;;;6.70;3.28;;;;;;;14.60;33.07;96740.75;5036806;28;20033;-31
2023/04/11 06:38:54;;;;;;;7.80;3.75;;;;;;;14.72;33.51;96739.16;5036890;28;20155;-32
2023/04/11 06:41:19;;;;;;;7.20;3.85;;;;;;;14.72;33.24;96739.94;5036521;28;20025;-30
2023/04/11 06:43:44;;;;;;;14.80;5.55;;;;;;;14.69;33.06;96731.91;5043656;28;20047;-30
2023/04/11 06:46:10;;;;;;;15.55;7.95;;;;;;;14.64;32.79;96735.94;5044077;28;20522;-32
2023/04/11 06:48:36;;;;;;;11.20;5.65;;;;;;;14.77;32.42;96735.13;5036438;28;20037;-31
2023/04/11 06:51:01;;;;;;;7.70;4.53;;;;;;;14.62;32.25;96737.59;5043873;28;20044;-30
2023/04/11 06:53:27;;;;;;;5.40;2.97;;;;;;;14.79;32.16;96735.44;5036076;28;20017;-29
2023/04/11 06:55:52;;;;;;;4.65;2.95;;;;;;;14.61;32.83;96731.38;5041862;28;20023;-30
2023/04/11 06:58:18;;;;;;;3.95;2.90;;;;;;;14.79;33.00;96741.66;5037988;28;20084;-30
2023/04/11 07:00:43;;;;;;;6.57;2.60;;;;;;;14.95;32.91;96737.97;5042352;28;20477;-30
2023/04/11 07:03:08;;;;;;;4.00;2.78;;;;;;;14.89;33.18;96726.84;5043008;28;20051;-30
2023/04/11 07:05:35;;;;;;;5.32;3.40;;;;;;;14.70;33.91;96733.41;5036485;28;20103;-30
2023/04/11 07:08:00;;;;;;;7.20;4.07;;;;;;;14.87;34.21;96726.53;5034306;28;20389;-32
2023/04/11 07:10:26;;;;;;;5.28;3.30;;;;;;;14.65;35.02;96720.34;5036269;28;20099;-30
2023/04/11 07:12:51;;;;;;;5.13;3.00;;;;;;;14.70;34.84;96723.25;5036070;28;20079;-31
2023/04/11 07:15:17;;;;;;;4.32;2.70;;;;;;;14.66;35.26;96725.34;5050390;28;20051;-30
2023/04/11 07:17:42;;;;;;;6.97;4.90;;;;;;;14.95;34.87;96727.03;5036576;28;20068;-30
2023/04/11 07:20:08;;;;;;;12.18;8.90;;;;;;;14.80;35.34;96726.81;5041398;28;20021;-31
2023/04/11 07:22:35;;;;;;;13.73;9.13;;;;;;;14.62;35.73;96719.25;5035952;28;20049;-31
2023/04/11 07:25:03;;;;;;;11.25;7.15;;;;;;;14.73;35.71;96724.31;5031144;28;20070;-30
2023/04/11 07:27:31;;;;;;;9.70;6.70;;;;;;;14.71;35.62;96730.22;5035858;28;20076;-31
2023/04/11 07:29:57;;;;;;;5.72;4.40;;;;;;;14.91;35.35;96729.13;5034977;28;20033;-30
2023/04/11 07:32:22;;;;;;;7.18;4.75;;;;;;;14.82;35.59;96729.84;5048240;28;20025;-30
2023/04/11 07:34:48;;;;;;;8.38;4.50;;;;;;;14.94;36.11;96725.50;5044609;28;20021;-30
2023/04/11 07:37:13;;;;;;;6.57;4.43;;;;;;;14.96;35.65;96717.63;5038027;28;20021;-30
2023/04/11 07:39:39;;;;;;;6.57;4.30;;;;;;;14.82;35.92;96726.34;5039014;28;20032;-32
2023/04/11 07:42:05;;;;;;;10.40;4.45;;;;;;;14.89;35.93;96724.09;5035546;28;20029;-31
2023/04/11 07:44:31;;;;;;;7.03;4.40;;;;;;;14.93;35.95;96723.97;5035349;28;20071;-31
2023/04/11 07:46:57;;;;;;;7.30;4.30;;;;;;;15.04;35.88;96705.22;5035426;28;20025;-30
2023/04/11 07:49:22;;;;;;;7.63;3.85;;;;;;;14.97;36.23;96721.88;5042437;28;20028;-30
2023/04/11 07:51:47;;;;;;;4.82;3.40;;;;;;;15.03;36.20;96720.09;5034952;28;20048;-31
2023/04/11 07:54:13;;;;;;;5.97;3.60;;;;;;;15.01;36.41;96725.22;5035141;28;20022;-30
2023/04/11 07:56:38;;;;;;;4.90;3.17;;;;;;;15.11;36.58;96726.78;5042201;28;20017;-31
2023/04/11 07:59:04;;;;;;;4.50;3.20;;;;;;;15.09;36.93;96727.22;5034794;28;20096;-30
2023/04/11 08:01:29;;;;;;;4.43;2.90;;;;;;;15.26;37.17;96718.81;5035381;28;20013;-31
2023/04/11 08:03:55;;;;;;;5.30;2.85;;;;;;;15.21;37.28;96724.84;5040458;28;20496;-29
2023/04/11 08:06:20;;;;;;;4.88;2.67;;;;;;;15.20;37.13;96728.81;5037211;28;20466;-31
2023/04/11 08:08:47;;;;;;;5.85;2.80;;;;;;;15.14;37.07;96723.16;5041746;28;20023;-30
2023/04/11 08:11:13;;;;;;;4.03;2.65;;;;;;;15.28;36.98;96721.84;5035058;28;20071;-31
2023/04/11 08:13:39;;;;;;;3.70;2.70;;;;;;;15.30;37.12;96720.19;5036996;28;20469;-30
2023/04/11 08:16:09;;;;;;;4.00;3.10;;;;;;;15.32;36.99;96723.25;5039896;28;20017;-30
2023/04/11 08:18:36;;;;;;;5.97;2.65;;;;;;;15.32;36.99;96722.50;5034522;28;20430;-31
2023/04/11 08:21:02;;;;;;;5.05;2.70;;;;;;;15.30;37.04;96719.44;5041789;28;20108;-30
2023/04/11 08:23:28;;;;;;;3.78;2.55;;;;;;;15.18;37.37;96723.81;5041758;28;20025;-30
2023/04/11 08:25:54;;;;;;;4.03;2.85;;;;;;;15.25;37.68;96720.03;5035043;28;20029;-30
2023/04/11 08:28:20;;;;;;;3.58;2.50;;;;;;;15.40;37.46;96729.19;5034496;28;20021;-31
2023/04/11 08:30:46;;;;;;;7.70;2.83;;;;;;;15.22;38.18;96731.84;5034868;28;20036;-30
2023/04/11 08:33:11;;;;;;;5.03;2.88;;;;;;;15.21;38.30;96733.03;5045639;28;20044;-30
2023/04/11 08:35:41;;;;;;;4.10;2.80;;;;;;;15.41;37.76;96733.44;5037854;28;20029;-31
2023/04/11 08:38:07;;;;;;;5.32;2.65;;;;;;;15.37;37.73;96736.31;5041791;28;20083;-30
2023/04/11 08:40:32;;;;;;;3.60;2.40;;;;;;;15.34;37.57;96731.75;5034288;28;20025;-32
2023/04/11 08:42:59;;;;;;;4.72;2.65;;;;;;;15.38;37.48;96731.59;5032999;28;20032;-31
2023/04/11 08:45:24;;;;;;;3.38;2.63;;;;;;;15.49;37.16;96726.47;5034298;28;20100;-29
2023/04/11 08:47:50;;;;;;;4.13;2.47;;;;;;;15.50;37.07;96735.44;5034325;28;20164;-30
2023/04/11 08:50:16;;;;;;;3.95;2.40;;;;;;;15.54;37.20;96738.81;5041586;28;20083;-30
2023/04/11 08:52:43;;;;;;;4.57;2.80;;;;;;;15.53;37.11;96740.00;5039220;28;20024;-30
2023/04/11 08:55:09;;;;;;;4.07;2.90;;;;;;;15.57;37.09;96733.22;5036229;28;20488;-29
2023/04/11 08:57:35;;;;;;;6.90;3.70;;;;;;;15.46;37.07;96739.06;5040830;28;20025;-32
2023/04/11 09:00:21;;;;;;;5.13;3.50;;;;;;;15.75;36.61;96727.78;5033914;28;20021;-31
2023/04/11 09:03:00;;;;;;;5.20;3.42;;;;;;;15.72;36.49;96725.19;5027918;28;20508;-30
2023/04/11 09:05:30;;;;;;;4.90;3.10;;;;;;;15.80;36.80;96719.00;5036908;28;20037;-32
2023/04/11 09:07:57;;;;;;;5.10;3.25;;;;;;;15.79;37.02;96717.47;5039473;28;20017;-30
2023/04/11 09:10:24;;;;;;;4.78;3.40;;;;;;;15.93;36.87;96712.63;5041030;28;20025;-30
2023/04/11 09:12:49;;;;;;;4.38;2.97;;;;;;;15.99;36.97;96719.78;5033810;28;20105;-31
2023/04/11 09:15:19;;;;;;;11.80;2.80;;;;;;;15.75;37.48;96708.66;5040635;28;20109;-30
2023/04/11 09:17:45;;;;;;;4.78;2.70;;;;;;;15.89;37.38;96704.56;5034574;28;20048;-30
2023/04/11 09:20:24;;;;;;;4.57;3.15;;;;;;;16.00;37.04;96687.69;5033760;28;20030;-30
2023/04/11 09:22:51;;;;;;;3.78;2.90;;;;;;;16.04;37.17;96672.66;5041266;28;20393;-30
2023/04/11 09:25:21;;;;;;;4.30;2.83;;;;;;;15.77;37.58;96669.91;5038874;28;20039;-30
2023/04/11 09:27:48;;;;;;;5.15;2.85;;;;;;;15.89;37.18;96679.19;5034433;28;20108;-30
2023/04/11 09:30:23;;;;;;;4.72;3.08;;;;;;;15.87;37.55;96678.88;5032813;28;20461;-30
2023/04/11 09:32:51;;;;;;;3.50;2.70;;;;;;;15.84;37.64;96666.88;5040122;28;20033;-30
2023/04/11 09:35:23;;;;;;;3.70;3.17;;;;;;;15.94;37.45;96660.22;5033698;28;20412;-30
2023/04/11 09:37:59;;;;;;;3.83;2.58;;;;;;;16.07;37.23;96649.84;5040407;28;20128;-30
2023/04/11 09:40:26;;;;;;;3.80;2.53;;;;;;;15.98;37.11;96647.13;5027722;28;20033;-30
2023/04/11 09:42:59;;;;;;;4.68;2.80;;;;;;;15.91;37.34;96646.69;5040802;28;20108;-32
2023/04/11 09:45:26;;;;;;;3.72;2.40;;;;;;;15.83;37.54;96654.41;5027135;28;20053;-30
2023/04/11 09:47:56;;;;;;;5.40;2.80;;;;;;;16.05;37.02;96646.06;5033451;28;20033;-30
2023/04/11 09:50:22;;;;;;;5.15;2.40;;;;;;;16.08;37.05;96651.38;5040634;28;20555;-31
2023/04/11 09:52:49;;;;;;;3.45;2.30;;;;;;;16.04;37.20;96645.31;5033483;28;20021;-31
2023/04/11 09:55:19;;;;;;;3.50;2.53;;;;;;;16.07;37.55;96638.16;5041244;28;20016;-31
2023/04/11 09:57:49;;;;;;;3.30;2.35;;;;;;;16.11;37.50;96644.22;5043899;28;20021;-30
2023/04/11 10:00:19;;;;;;;4.07;2.42;;;;;;;16.00;37.74;96649.41;5035144;28;20023;-30
2023/04/11 10:02:48;;;;;;;3.33;2.22;;;;;;;16.10;37.57;96648.94;5033209;28;20056;-31
2023/04/11 10:05:15;;;;;;;4.10;2.20;;;;;;;16.02;38.11;96642.28;5032855;28;20017;-30
2023/04/11 10:07:51;;;;;;;4.55;2.40;;;;;;;16.05;38.08;96641.34;5036110;28;20028;-30
2023/04/11 10:10:21;;;;;;;2.92;2.13;;;;;;;16.03;38.10;96645.75;5036159;28;20021;-29
2023/04/11 10:12:48;;;;;;;4.70;2.28;;;;;;;16.01;38.40;96635.28;5026353;28;20018;-31
2023/04/11 10:15:14;;;;;;;5.50;2.47;;;;;;;16.12;38.30;96643.78;5040801;28;20021;-31
2023/04/11 10:17:40;;;;;;;3.97;2.22;;;;;;;16.26;38.08;96638.91;5033184;28;20112;-30
2023/04/11 10:20:39;;;;;;;3.97;2.70;;;;;;;16.22;38.58;96635.56;5033317;28;20087;-29
2023/04/11 10:23:05;;;;;;;4.38;2.50;;;;;;;16.24;38.75;96633.13;5032901;28;20052;-31
2023/04/11 10:25:48;;;;;;;4.50;2.42;;;;;;;16.12;39.25;96627.34;5040042;28;20116;-30
2023/04/11 10:28:37;;;;;;;6.37;2.87;;;;;;;16.24;38.82;96622.19;5027199;28;20022;-31
2023/04/11 10:31:03;;;;;;;4.07;3.00;;;;;;;16.20;39.08;96618.81;5039838;28;20029;-29
2023/04/11 10:33:30;;;;;;;3.88;2.67;;;;;;;16.26;38.64;96611.53;5040362;28;20026;-29
2023/04/11 10:36:04;;;;;;;4.47;2.53;;;;;;;16.23;38.92;96612.44;5033443;28;20531;-32
2023/04/11 10:38:36;;;;;;;5.50;3.45;;;;;;;16.32;38.68;96618.66;5033324;28;20021;-29
2023/04/11 10:41:18;;;;;;;6.28;3.88;;;;;;;16.37;38.63;96611.81;5040654;28;20029;-29
2023/04/11 10:43:45;;;;;;;5.30;3.97;;;;;;;16.26;38.97;96617.75;5036587;28;20025;-30
2023/04/11 10:46:22;;;;;;;6.38;3.72;;;;;;;16.28;39.11;96606.38;5036600;28;20274;-30
2023/04/11 10:49:03;;;;;;;6.57;3.22;;;;;;;16.31;39.00;96602.72;5036356;28;20086;-30
2023/04/11 10:51:32;;;;;;;4.72;3.50;;;;;;;16.36;38.88;96610.28;5029597;28;20025;-31
2023/04/11 10:53:59;;;;;;;4.65;3.03;;;;;;;16.33;39.11;96627.63;5035694;28;20508;-31
2023/04/11 10:56:45;;;;;;;4.68;3.15;;;;;;;16.33;39.24;96609.22;5045647;28;20033;-30
2023/04/11 10:59:33;;;;;;;4.47;3.00;;;;;;;16.33;39.34;96605.72;5038241;28;20104;-30
2023/04/11 11:02:00;;;;;;;3.88;2.60;;;;;;;16.44;39.08;96597.81;5036086;28;20037;-30
2023/04/11 11:04:33;;;;;;;4.85;3.20;;;;;;;16.42;39.23;96601.00;5036266;28;20558;-31
2023/04/11 11:07:00;;;;;;;4.95;2.90;;;;;;;16.44;39.39;96611.50;5035148;28;20066;-29
2023/04/11 11:09:27;;;;;;;4.20;3.03;;;;;;;16.45;39.35;96605.53;5033284;28;20071;-31
2023/04/11 11:12:13;;;;;;;4.32;3.03;;;;;;;16.49;39.38;96603.41;5042640;28;20025;-29
2023/04/11 11:14:44;;;;;;;4.28;2.90;;;;;;;16.48;39.09;96601.13;5050762;28;20491;-30
2023/04/11 11:17:13;;;;;;;6.13;2.55;;;;;;;16.42;39.04;96592.03;5036155;28;20021;-29
2023/04/11 11:19:46;;;;;;;4.13;3.00;;;;;;;16.47;39.24;96592.16;5036001;28;20083;-29
2023/04/11 11:22:15;;;;;;;3.13;2.28;;;;;;;16.47;39.11;96585.94;5042815;28;20098;-32
2023/04/11 11:24:41;;;;;;;4.72;2.80;;;;;;;16.50;39.24;96587.75;5035808;28;20108;-29
2023/04/11 11:27:21;;;;;;;4.72;3.17;;;;;;;16.49;39.14;96591.69;5042802;28;20530;-30
2023/04/11 11:29:46;;;;;;;3.72;2.80;;;;;;;16.48;38.97;96584.72;5043277;28;20051;-29
2023/04/11 11:32:28;;;;;;;4.18;2.47;;;;;;;16.40;39.10;96578.81;5039537;28;20473;-29
2023/04/11 11:34:54;;;;;;;3.58;2.60;;;;;;;16.45;38.77;96577.41;5037052;28;20075;-30
2023/04/11 11:37:20;;;;;;;3.65;2.40;;;;;;;16.56;38.78;96580.44;5039297;28;20024;-29